createdAt,value
2022-12-24T00:00:56.028Z,10.49
2022-12-24T00:03:57.578Z,10.48
2022-12-24T00:06:59.121Z,10.46
2022-12-24T00:10:00.688Z,10.43
2022-12-24T00:13:02.243Z,10.40
2022-12-24T00:16:04.139Z,10.40
2022-12-24T00:19:05.719Z,10.34
2022-12-24T00:22:07.270Z,10.34
2022-12-24T00:25:09.517Z,10.34
2022-12-24T00:28:12.005Z,10.33
2022-12-24T00:31:16.402Z,10.30
2022-12-24T00:34:18.043Z,10.27
2022-12-24T00:37:19.622Z,10.25
2022-12-24T00:40:21.209Z,10.18
2022-12-24T00:43:22.725Z,10.23
2022-12-24T00:46:26.036Z,10.18
2022-12-24T00:49:27.655Z,10.19
2022-12-24T00:52:29.191Z,10.18
2022-12-24T00:55:30.752Z,10.13
2022-12-24T00:58:32.470Z,10.03
2022-12-24T01:01:35.800Z,10.03
2022-12-24T01:04:56.289Z,10.00
2022-12-24T01:07:57.893Z,9.97
2022-12-24T01:11:01.449Z,9.97
2022-12-24T01:14:03.116Z,9.96
2022-12-24T01:17:05.200Z,9.93
2022-12-24T01:20:11.196Z,9.91
2022-12-24T01:23:12.800Z,9.86
2022-12-24T01:26:14.704Z,9.85
2022-12-24T01:29:16.486Z,9.85
2022-12-24T01:32:18.063Z,9.82
2022-12-24T01:35:19.595Z,9.82
2022-12-24T01:38:21.144Z,9.79
2022-12-24T01:41:41.987Z,9.78
2022-12-24T01:44:47.954Z,9.75
2022-12-24T01:47:49.545Z,9.76
2022-12-24T01:50:56.258Z,9.75
2022-12-24T01:54:06.943Z,9.74
2022-12-24T01:57:13.395Z,9.75
2022-12-24T02:00:16.637Z,9.74
2022-12-24T02:03:19.582Z,9.74
2022-12-24T02:06:22.060Z,9.71
2022-12-24T02:09:23.814Z,9.72
2022-12-24T02:12:28.777Z,9.69
2022-12-24T02:15:49.296Z,9.70
2022-12-24T02:18:50.837Z,9.69
2022-12-24T02:22:21.853Z,9.67
2022-12-24T02:25:50.538Z,9.68
2022-12-24T02:29:13.182Z,9.65
2022-12-24T02:32:23.224Z,9.60
2022-12-24T02:35:41.863Z,9.65
2022-12-24T02:38:55.847Z,9.66
2022-12-24T02:42:08.022Z,9.64
2022-12-24T02:45:14.706Z,9.64
2022-12-24T02:48:17.859Z,9.62
2022-12-24T02:51:24.934Z,9.63
2022-12-24T02:54:26.988Z,9.62
2022-12-24T02:57:44.782Z,9.59
2022-12-24T03:01:32.353Z,9.60
2022-12-24T03:04:52.261Z,9.59
2022-12-24T03:08:14.273Z,9.55
2022-12-24T03:11:16.570Z,9.52
2022-12-24T03:14:18.746Z,9.51
2022-12-24T03:17:21.176Z,9.48
2022-12-24T03:20:30.609Z,9.51
2022-12-24T03:23:33.403Z,9.49
2022-12-24T03:26:35.132Z,9.48
2022-12-24T03:29:39.479Z,9.46
2022-12-24T03:32:41.608Z,9.46
2022-12-24T03:35:43.192Z,9.44
2022-12-24T03:38:44.694Z,9.44
2022-12-24T03:41:46.313Z,9.41
2022-12-24T03:44:47.880Z,9.40
2022-12-24T03:47:49.555Z,9.36
2022-12-24T03:50:51.088Z,9.35
2022-12-24T03:53:53.899Z,9.33
2022-12-24T03:56:55.506Z,9.33
2022-12-24T03:59:57.026Z,9.33
2022-12-24T04:02:58.641Z,9.33
2022-12-24T04:06:03.247Z,9.33
2022-12-24T04:09:05.306Z,9.36
2022-12-24T04:12:07.632Z,9.37
2022-12-24T04:15:10.213Z,9.38
2022-12-24T04:18:11.763Z,9.39
2022-12-24T04:21:13.383Z,9.37
2022-12-24T04:24:15.042Z,9.40
2022-12-24T04:27:17.033Z,9.42
2022-12-24T04:30:18.613Z,9.46
2022-12-24T04:33:20.174Z,9.46
2022-12-24T04:36:22.116Z,9.48
2022-12-24T04:39:23.691Z,9.48
2022-12-24T04:42:25.231Z,9.49
2022-12-24T04:45:27.066Z,9.49
2022-12-24T04:48:28.727Z,9.49
2022-12-24T04:51:30.352Z,9.48
2022-12-24T04:54:31.896Z,9.41
2022-12-24T04:57:35.648Z,9.37
2022-12-24T05:00:37.194Z,9.40
2022-12-24T05:03:38.817Z,9.40
2022-12-24T05:06:40.341Z,9.37
2022-12-24T05:09:41.952Z,9.35
2022-12-24T05:12:43.955Z,9.35
2022-12-24T05:15:45.485Z,9.36
2022-12-24T05:18:47.082Z,9.36
2022-12-24T05:22:08.610Z,9.37
2022-12-24T05:25:28.681Z,9.38
2022-12-24T05:28:30.262Z,9.35
2022-12-24T05:31:33.482Z,9.33
2022-12-24T05:34:35.068Z,9.30
2022-12-24T05:37:36.627Z,9.30
2022-12-24T05:40:38.180Z,9.29
2022-12-24T05:43:39.944Z,9.26
2022-12-24T05:46:41.613Z,9.24
2022-12-24T05:49:43.220Z,9.20
2022-12-24T05:52:44.768Z,9.16
2022-12-24T05:55:46.444Z,9.12
2022-12-24T05:58:48.420Z,9.08
2022-12-24T06:01:50.090Z,9.01
2022-12-24T06:04:51.798Z,8.96
2022-12-24T06:07:53.378Z,8.95
2022-12-24T06:11:00.053Z,8.86
2022-12-24T06:14:01.623Z,8.88
2022-12-24T06:17:03.238Z,8.80
2022-12-24T06:20:05.634Z,8.80
2022-12-24T06:23:07.179Z,8.75
2022-12-24T06:26:11.546Z,8.71
2022-12-24T06:29:13.186Z,8.70
2022-12-24T06:32:14.702Z,8.60
2022-12-24T06:35:16.257Z,8.61
2022-12-24T06:38:18.215Z,8.57
2022-12-24T06:41:20.620Z,8.54
2022-12-24T06:44:22.194Z,8.53
2022-12-24T06:47:23.820Z,8.51
2022-12-24T06:50:25.533Z,8.49
2022-12-24T06:53:27.093Z,8.47
2022-12-24T06:56:28.639Z,8.45
2022-12-24T06:59:30.251Z,8.44
2022-12-24T07:02:31.880Z,8.42
2022-12-24T07:05:33.481Z,8.40
2022-12-24T07:08:36.352Z,8.40
2022-12-24T07:11:38.049Z,8.40
2022-12-24T07:14:39.577Z,8.37
2022-12-24T07:17:41.559Z,8.41
2022-12-24T07:20:43.144Z,8.41
2022-12-24T07:23:44.628Z,8.41
2022-12-24T07:26:46.148Z,8.43
2022-12-24T07:29:48.328Z,8.42
2022-12-24T07:32:49.874Z,8.41
2022-12-24T07:35:59.235Z,8.43
2022-12-24T07:39:00.803Z,8.46
2022-12-24T07:42:02.505Z,8.48
2022-12-24T07:45:04.392Z,8.50
2022-12-24T07:51:41.073Z,8.50
2022-12-24T07:54:42.676Z,8.53
2022-12-24T07:57:44.250Z,8.56
2022-12-24T08:00:45.805Z,8.56
2022-12-24T08:03:47.609Z,8.59
2022-12-24T08:06:49.335Z,8.60
2022-12-24T08:09:50.868Z,8.63
2022-12-24T08:12:52.424Z,8.65
2022-12-24T08:15:54.096Z,8.64
2022-12-24T08:18:55.642Z,8.67
2022-12-24T08:21:57.210Z,8.68
2022-12-24T08:24:58.717Z,8.68
2022-12-24T08:28:01.083Z,8.69
2022-12-24T08:31:03.324Z,8.71
2022-12-24T08:34:06.508Z,8.74
2022-12-24T08:37:08.087Z,8.75
2022-12-24T08:40:10.362Z,8.77
2022-12-24T08:43:11.919Z,8.79
2022-12-24T08:46:13.793Z,8.82
2022-12-24T08:49:16.028Z,8.79
2022-12-24T08:52:17.604Z,8.85
2022-12-24T08:55:19.165Z,8.83
2022-12-24T08:58:20.711Z,8.84
2022-12-24T09:01:22.595Z,8.83
2022-12-24T09:04:24.196Z,8.87
2022-12-24T09:07:25.797Z,8.86
2022-12-24T09:10:27.383Z,8.87
2022-12-24T09:13:29.129Z,8.89
2022-12-24T09:16:33.766Z,8.92
2022-12-24T09:19:35.399Z,8.93
2022-12-24T09:22:39.599Z,8.95
2022-12-24T09:25:44.575Z,8.96
2022-12-24T09:28:46.898Z,8.97
2022-12-24T09:31:48.495Z,8.98
2022-12-24T09:34:50.035Z,8.99
2022-12-24T09:38:02.840Z,9.01
2022-12-24T09:41:24.456Z,9.02
2022-12-24T09:44:37.158Z,9.01
2022-12-24T09:47:47.625Z,9.01
2022-12-24T09:50:54.855Z,9.01
2022-12-24T09:54:05.416Z,8.99
2022-12-24T09:57:17.138Z,8.99
2022-12-24T10:00:28.729Z,9.01
2022-12-24T10:03:31.319Z,9.04
2022-12-24T10:07:14.274Z,9.03
2022-12-24T10:10:18.633Z,9.05
2022-12-24T10:13:52.958Z,9.05
2022-12-24T10:17:03.556Z,9.06
2022-12-24T10:20:42.293Z,9.06
2022-12-24T10:24:00.295Z,9.05
2022-12-24T10:27:25.051Z,9.02
2022-12-24T10:30:26.871Z,9.04
2022-12-24T10:33:49.115Z,9.03
2022-12-24T10:36:51.317Z,8.97
2022-12-24T10:39:53.188Z,9.02
2022-12-24T10:42:54.736Z,9.01
2022-12-24T10:46:01.169Z,8.98
2022-12-24T10:49:05.871Z,8.99
2022-12-24T10:52:13.235Z,8.98
2022-12-24T10:55:17.552Z,9.05
2022-12-24T10:58:19.847Z,9.01
2022-12-24T11:01:48.206Z,9.02
2022-12-24T11:04:50.572Z,9.02
2022-12-24T11:08:03.455Z,9.02
2022-12-24T11:11:08.480Z,9.07
2022-12-24T11:14:16.311Z,9.08
2022-12-24T11:17:23.087Z,9.11
2022-12-24T11:20:28.237Z,9.18
2022-12-24T11:23:30.385Z,9.22
2022-12-24T11:26:31.956Z,9.26
2022-12-24T11:29:33.577Z,9.31
2022-12-24T11:32:35.607Z,9.32
2022-12-24T11:35:46.502Z,9.37
2022-12-24T11:38:57.421Z,9.43
2022-12-24T11:41:59.006Z,9.46
2022-12-24T11:45:03.437Z,9.51
2022-12-24T11:48:25.678Z,9.53
2022-12-24T11:51:27.736Z,9.50
2022-12-24T11:54:34.338Z,9.48
2022-12-24T11:58:05.064Z,9.46
2022-12-24T12:01:28.948Z,9.43
2022-12-24T12:04:35.225Z,9.38
2022-12-24T12:07:38.561Z,9.35
2022-12-24T12:10:43.402Z,9.33
2022-12-24T12:13:46.694Z,9.27
2022-12-24T12:17:00.820Z,9.25
2022-12-24T12:20:07.424Z,9.22
2022-12-24T12:23:15.601Z,9.17
2022-12-24T12:26:25.794Z,9.12
2022-12-24T12:29:40.212Z,9.07
2022-12-24T12:32:50.636Z,9.10
2022-12-24T12:35:55.525Z,9.14
2022-12-24T12:38:57.058Z,9.16
2022-12-24T12:42:29.472Z,9.18
2022-12-24T12:45:46.190Z,9.20
2022-12-24T12:49:02.226Z,9.22
2022-12-24T12:52:19.590Z,9.25
2022-12-24T12:55:27.378Z,9.26
2022-12-24T12:58:41.335Z,9.28
2022-12-24T13:01:52.749Z,9.31
2022-12-24T13:05:00.303Z,9.33
2022-12-24T13:08:07.938Z,9.34
2022-12-24T13:11:31.123Z,9.31
2022-12-24T13:15:09.703Z,9.27
2022-12-24T13:18:11.349Z,9.25
2022-12-24T13:21:25.247Z,9.23
2022-12-24T13:24:30.764Z,9.24
2022-12-24T13:27:34.577Z,9.24
2022-12-24T13:30:40.617Z,9.21
2022-12-24T13:33:42.108Z,9.20
2022-12-24T13:37:05.668Z,9.18
2022-12-24T13:40:10.352Z,9.15
2022-12-24T13:43:12.501Z,9.15
2022-12-24T13:46:52.387Z,9.12
2022-12-24T13:49:54.231Z,9.10
2022-12-24T13:52:56.103Z,9.08
2022-12-24T13:56:05.584Z,9.06
2022-12-24T13:59:38.359Z,9.05
2022-12-24T14:03:00.312Z,9.00
2022-12-24T14:06:07.024Z,8.96
2022-12-24T14:09:20.359Z,8.94
2022-12-24T14:12:46.778Z,8.95
2022-12-24T14:15:48.275Z,8.92
2022-12-24T14:18:51.106Z,8.93
2022-12-24T14:22:19.458Z,8.89
2022-12-24T14:25:23.231Z,8.88
2022-12-24T14:28:33.956Z,8.89
2022-12-24T14:31:35.847Z,8.89
2022-12-24T14:34:37.387Z,8.84
2022-12-24T14:37:41.277Z,8.83
2022-12-24T14:41:03.003Z,8.79
2022-12-24T14:44:14.964Z,8.79
2022-12-24T14:47:43.100Z,8.78
2022-12-24T14:50:51.637Z,8.76
2022-12-24T14:54:33.413Z,8.78
2022-12-24T14:57:35.196Z,8.76
2022-12-24T15:00:39.575Z,8.74
2022-12-24T15:03:41.375Z,8.73
2022-12-24T15:06:57.569Z,8.67
2022-12-24T15:09:59.240Z,8.65
2022-12-24T15:13:21.270Z,8.64
2022-12-24T15:16:26.865Z,8.63
2022-12-24T15:19:42.350Z,8.58
2022-12-24T15:22:46.609Z,8.54
2022-12-24T15:25:48.167Z,8.51
2022-12-24T15:28:50.422Z,8.50
2022-12-24T15:32:04.960Z,8.46
2022-12-24T15:35:06.750Z,8.42
2022-12-24T15:38:32.323Z,8.42
2022-12-24T15:42:01.318Z,8.40
2022-12-24T15:45:11.515Z,8.38
2022-12-24T15:48:21.154Z,8.37
2022-12-24T15:51:40.489Z,8.33
2022-12-24T15:54:50.770Z,8.33
2022-12-24T15:57:55.533Z,8.30
2022-12-24T16:01:26.842Z,8.29
2022-12-24T16:04:28.688Z,8.27
2022-12-24T16:07:50.689Z,8.26
2022-12-24T16:11:23.582Z,8.23
2022-12-24T16:14:25.232Z,8.22
2022-12-24T16:17:30.338Z,8.22
2022-12-24T16:20:32.841Z,8.21
2022-12-24T16:23:45.233Z,8.20
2022-12-24T16:26:48.023Z,8.18
2022-12-24T16:29:50.258Z,8.15
2022-12-24T16:32:51.969Z,8.14
2022-12-24T16:35:53.644Z,8.12
2022-12-24T16:39:14.886Z,8.09
2022-12-24T16:42:35.755Z,8.07
2022-12-24T16:45:37.700Z,8.04
2022-12-24T16:48:46.080Z,8.05
2022-12-24T16:51:47.740Z,7.99
2022-12-24T16:54:50.546Z,7.99
2022-12-24T16:57:52.136Z,8.00
2022-12-24T17:00:53.648Z,7.95
2022-12-24T17:03:55.299Z,7.93
2022-12-24T17:06:56.887Z,7.92
2022-12-24T17:09:58.420Z,7.88
2022-12-24T17:13:01.106Z,7.89
2022-12-24T17:16:03.288Z,7.85
2022-12-24T17:19:05.586Z,7.83
2022-12-24T17:22:07.053Z,7.81
2022-12-24T17:25:09.978Z,7.80
2022-12-24T17:28:11.666Z,7.78
2022-12-24T17:31:19.178Z,7.78
2022-12-24T17:34:20.770Z,7.73
2022-12-24T17:37:22.333Z,7.70
2022-12-24T17:40:23.827Z,7.70
2022-12-24T17:43:25.341Z,7.67
2022-12-24T17:46:26.877Z,7.65
2022-12-24T17:49:28.581Z,7.64
2022-12-24T17:52:30.515Z,7.62
2022-12-24T17:55:32.031Z,7.58
2022-12-24T17:58:33.917Z,7.52
2022-12-24T18:01:35.575Z,7.54
2022-12-24T18:04:37.262Z,7.53
2022-12-24T18:07:39.102Z,7.54
2022-12-24T18:10:41.070Z,7.51
2022-12-24T18:13:43.165Z,7.52
2022-12-24T18:16:48.071Z,7.50
2022-12-24T18:19:49.904Z,7.47
2022-12-24T18:22:51.694Z,7.47
2022-12-24T18:25:53.216Z,7.47
2022-12-24T18:28:56.869Z,7.47
2022-12-24T18:31:58.496Z,7.43
2022-12-24T18:35:00.133Z,7.41
2022-12-24T18:38:01.803Z,7.42
2022-12-24T18:41:09.133Z,7.43
2022-12-24T18:44:10.675Z,7.41
2022-12-24T18:47:12.371Z,7.38
2022-12-24T18:50:13.962Z,7.37
2022-12-24T18:53:15.552Z,7.37
2022-12-24T18:56:20.551Z,7.36
2022-12-24T18:59:22.094Z,7.35
2022-12-24T19:02:23.805Z,7.38
2022-12-24T19:05:25.453Z,7.37
2022-12-24T19:08:56.535Z,7.38
2022-12-24T19:11:48.814Z,7.37
2022-12-24T19:14:50.388Z,7.38
2022-12-24T19:17:55.223Z,7.38
2022-12-24T19:20:56.820Z,7.37
2022-12-24T19:23:58.967Z,7.37
2022-12-24T19:27:00.873Z,7.35
2022-12-24T19:30:04.944Z,7.35
2022-12-24T19:33:06.697Z,7.32
2022-12-24T19:36:09.760Z,7.32
2022-12-24T19:39:11.334Z,7.26
2022-12-24T19:42:12.901Z,7.28
2022-12-24T19:45:14.402Z,7.26
2022-12-24T19:48:15.936Z,7.26
2022-12-24T19:51:17.934Z,7.25
2022-12-24T19:54:19.735Z,7.25
2022-12-24T19:57:21.302Z,7.14
2022-12-24T20:00:22.880Z,7.19
2022-12-24T20:03:24.505Z,7.18
2022-12-24T20:06:28.704Z,7.18
2022-12-24T20:09:32.668Z,7.15
2022-12-24T20:12:34.329Z,7.15
2022-12-24T20:15:40.836Z,7.15
2022-12-24T20:18:42.792Z,7.15
2022-12-24T20:21:44.422Z,7.14
2022-12-24T20:24:45.999Z,7.13
2022-12-24T20:27:47.524Z,7.12
2022-12-24T20:30:49.052Z,7.11
2022-12-24T20:33:50.778Z,7.10
2022-12-24T20:36:54.259Z,7.11
2022-12-24T20:39:55.806Z,7.07
2022-12-24T20:42:57.331Z,7.07
2022-12-24T20:45:58.979Z,7.03
2022-12-24T20:49:00.661Z,7.05
2022-12-24T20:52:02.233Z,7.05
2022-12-24T20:55:04.005Z,7.03
2022-12-24T20:58:05.769Z,7.00
2022-12-24T21:01:12.272Z,6.99
2022-12-24T21:04:13.875Z,6.99
2022-12-24T21:07:15.405Z,6.98
2022-12-24T21:10:17.263Z,6.97
2022-12-24T21:13:19.066Z,6.98
2022-12-24T21:16:20.728Z,6.97
2022-12-24T21:19:24.332Z,6.98
2022-12-24T21:22:26.430Z,6.97
2022-12-24T21:25:28.460Z,6.94
2022-12-24T21:28:31.712Z,6.92
2022-12-24T21:31:33.255Z,6.91
2022-12-24T21:34:34.837Z,6.89
2022-12-24T21:37:36.459Z,6.87
2022-12-24T21:40:38.237Z,6.87
2022-12-24T21:43:40.292Z,6.89
2022-12-24T21:46:42.303Z,6.84
2022-12-24T21:50:02.521Z,6.87
2022-12-24T21:53:22.532Z,6.87
2022-12-24T21:56:24.102Z,6.87
2022-12-24T21:59:27.163Z,6.87
2022-12-24T22:02:29.310Z,6.86
2022-12-24T22:05:33.303Z,6.86
2022-12-24T22:08:53.762Z,6.84
2022-12-24T22:11:56.195Z,6.83
2022-12-24T22:14:58.520Z,6.82
2022-12-24T22:18:00.122Z,6.81
2022-12-24T22:21:02.608Z,6.81
2022-12-24T22:24:04.684Z,6.80
2022-12-24T22:27:06.686Z,6.78
2022-12-24T22:30:08.737Z,6.76
2022-12-24T22:33:11.154Z,6.77
2022-12-24T22:36:12.737Z,6.75
2022-12-24T22:39:14.304Z,6.75
2022-12-24T22:42:15.938Z,6.74
2022-12-24T22:45:22.161Z,6.74
2022-12-24T22:48:24.374Z,6.72
2022-12-24T22:51:25.919Z,6.72
2022-12-24T22:54:27.555Z,6.70
2022-12-24T22:57:29.150Z,6.70
2022-12-24T23:00:43.334Z,6.70
2022-12-24T23:03:44.998Z,6.68
2022-12-24T23:06:46.619Z,6.69
2022-12-24T23:09:48.270Z,6.66
2022-12-24T23:13:14.408Z,6.67
2022-12-24T23:16:16.564Z,6.64
2022-12-24T23:19:18.130Z,6.64
2022-12-24T23:22:19.644Z,6.64
2022-12-24T23:25:21.204Z,6.63
2022-12-24T23:28:22.760Z,6.62
2022-12-24T23:31:25.427Z,6.63
2022-12-24T23:34:27.125Z,6.61
2022-12-24T23:37:34.911Z,6.60
2022-12-24T23:40:36.976Z,6.58
2022-12-24T23:43:38.931Z,6.57
2022-12-24T23:46:40.581Z,6.54
2022-12-24T23:49:43.305Z,6.55
2022-12-24T23:52:44.853Z,6.53
2022-12-24T23:55:46.420Z,6.50
2022-12-24T23:58:48.499Z,6.50
